sensor_id;sensor_type;location;lat;lon;timestamp;pressure;altitude;pressure_sealevel;temperature;humidity
45129;BME280;35512;56.312;101.728;2023-03-20T00:00:00;94946.66;;;-1.04;52.00
45129;BME280;35512;56.312;101.728;2023-03-20T00:02:32;94944.63;;;-1.07;52.45
45129;BME280;35512;56.312;101.728;2023-03-20T00:05:04;94939.78;;;-1.05;52.33
45129;BME280;35512;56.312;101.728;2023-03-20T00:07:34;94928.69;;;-0.98;51.75
45129;BME280;35512;56.312;101.728;2023-03-20T00:10:03;94924.47;;;-0.99;51.58
45129;BME280;35512;56.312;101.728;2023-03-20T00:12:33;94946.75;;;-1.00;50.94
45129;BME280;35512;56.312;101.728;2023-03-20T00:15:04;94943.53;;;-1.06;50.51
45129;BME280;35512;56.312;101.728;2023-03-20T00:17:34;94953.03;;;-1.05;50.73
45129;BME280;35512;56.312;101.728;2023-03-20T00:20:03;94960.34;;;-1.02;50.20
45129;BME280;35512;56.312;101.728;2023-03-20T00:22:32;94965.31;;;-1.00;50.13
45129;BME280;35512;56.312;101.728;2023-03-20T00:25:01;94954.59;;;-1.04;49.53
45129;BME280;35512;56.312;101.728;2023-03-20T00:27:30;94965.31;;;-1.00;49.23
45129;BME280;35512;56.312;101.728;2023-03-20T00:29:59;94969.06;;;-1.01;49.35
45129;BME280;35512;56.312;101.728;2023-03-20T00:32:30;94969.88;;;-1.09;49.06
45129;BME280;35512;56.312;101.728;2023-03-20T00:35:00;94979.56;;;-1.13;49.59
45129;BME280;35512;56.312;101.728;2023-03-20T00:37:39;94975.97;;;-1.09;49.56
45129;BME280;35512;56.312;101.728;2023-03-20T00:40:09;94979.22;;;-1.03;49.73
45129;BME280;35512;56.312;101.728;2023-03-20T00:42:42;94992.38;;;-0.94;49.20
45129;BME280;35512;56.312;101.728;2023-03-20T00:45:17;94995.88;;;-0.81;49.26
45129;BME280;35512;56.312;101.728;2023-03-20T00:47:51;94994.47;;;-0.79;49.18
45129;BME280;35512;56.312;101.728;2023-03-20T00:50:24;94989.34;;;-0.84;48.66
45129;BME280;35512;56.312;101.728;2023-03-20T00:52:55;95001.84;;;-0.84;48.78
45129;BME280;35512;56.312;101.728;2023-03-20T00:55:28;95020.06;;;-0.83;49.28
45129;BME280;35512;56.312;101.728;2023-03-20T00:57:59;95019.94;;;-0.87;48.47
45129;BME280;35512;56.312;101.728;2023-03-20T01:00:37;95017.44;;;-0.83;48.09
45129;BME280;35512;56.312;101.728;2023-03-20T01:03:17;95025.50;;;-0.79;48.71
45129;BME280;35512;56.312;101.728;2023-03-20T01:05:49;95048.31;;;-0.66;48.33
45129;BME280;35512;56.312;101.728;2023-03-20T01:08:22;95049.69;;;-0.60;48.77
45129;BME280;35512;56.312;101.728;2023-03-20T01:10:55;95067.53;;;-0.69;48.66
45129;BME280;35512;56.312;101.728;2023-03-20T01:13:28;95076.44;;;-0.74;49.46
45129;BME280;35512;56.312;101.728;2023-03-20T01:15:57;95080.31;;;-0.92;49.78
45129;BME280;35512;56.312;101.728;2023-03-20T01:18:27;95096.34;;;-1.18;50.32
45129;BME280;35512;56.312;101.728;2023-03-20T01:20:56;95103.06;;;-1.30;50.91
45129;BME280;35512;56.312;101.728;2023-03-20T01:23:25;95119.56;;;-1.24;51.18
45129;BME280;35512;56.312;101.728;2023-03-20T01:25:56;95128.91;;;-1.18;50.60
45129;BME280;35512;56.312;101.728;2023-03-20T01:28:31;95147.28;;;-1.22;50.84
45129;BME280;35512;56.312;101.728;2023-03-20T01:31:01;95139.28;;;-1.43;51.43
45129;BME280;35512;56.312;101.728;2023-03-20T01:33:31;95144.13;;;-1.54;51.76
45129;BME280;35512;56.312;101.728;2023-03-20T01:36:00;95163.13;;;-1.51;51.87
45129;BME280;35512;56.312;101.728;2023-03-20T01:38:29;95170.41;;;-1.40;51.57
45129;BME280;35512;56.312;101.728;2023-03-20T01:43:39;95186.16;;;-0.96;51.19
45129;BME280;35512;56.312;101.728;2023-03-20T01:46:23;95192.88;;;-0.60;50.82
45129;BME280;35512;56.312;101.728;2023-03-20T01:51:51;95206.44;;;0.11;50.47
45129;BME280;35512;56.312;101.728;2023-03-20T01:54:36;95218.44;;;-0.04;50.16
45129;BME280;35512;56.312;101.728;2023-03-20T01:57:11;95227.94;;;-0.24;49.78
45129;BME280;35512;56.312;101.728;2023-03-20T01:59:50;95235.75;;;-0.28;49.62
45129;BME280;35512;56.312;101.728;2023-03-20T02:02:25;95240.63;;;-0.30;49.81
45129;BME280;35512;56.312;101.728;2023-03-20T02:05:01;95254.16;;;-0.23;49.44
45129;BME280;35512;56.312;101.728;2023-03-20T02:07:32;95253.72;;;-0.04;49.81
45129;BME280;35512;56.312;101.728;2023-03-20T02:10:13;95262.34;;;0.14;49.17
45129;BME280;35512;56.312;101.728;2023-03-20T02:12:52;95269.28;;;0.28;49.15
45129;BME280;35512;56.312;101.728;2023-03-20T02:15:31;95277.06;;;0.33;48.88
45129;BME280;35512;56.312;101.728;2023-03-20T02:18:14;95294.41;;;0.30;48.66
45129;BME280;35512;56.312;101.728;2023-03-20T02:23:34;95316.53;;;0.13;48.46
45129;BME280;35512;56.312;101.728;2023-03-20T02:26:38;95331.38;;;0.14;48.81
45129;BME280;35512;56.312;101.728;2023-03-20T02:29:37;95334.00;;;0.23;48.42
45129;BME280;35512;56.312;101.728;2023-03-20T02:47:12;95392.28;;;0.41;46.37
45129;BME280;35512;56.312;101.728;2023-03-20T02:55:47;95406.28;;;0.29;46.12
45129;BME280;35512;56.312;101.728;2023-03-20T03:01:30;95432.06;;;-0.19;45.52
45129;BME280;35512;56.312;101.728;2023-03-20T03:04:15;95428.81;;;-0.33;45.12
45129;BME280;35512;56.312;101.728;2023-03-20T03:06:47;95450.66;;;-0.19;45.39
45129;BME280;35512;56.312;101.728;2023-03-20T03:09:26;95444.72;;;-0.16;43.97
45129;BME280;35512;56.312;101.728;2023-03-20T03:12:03;95449.22;;;-0.17;44.20
45129;BME280;35512;56.312;101.728;2023-03-20T03:14:41;95465.78;;;-0.11;43.68
45129;BME280;35512;56.312;101.728;2023-03-20T03:17:16;95466.25;;;-0.18;43.56
45129;BME280;35512;56.312;101.728;2023-03-20T03:19:49;95487.31;;;-0.21;42.76
45129;BME280;35512;56.312;101.728;2023-03-20T03:22:20;95490.63;;;-0.33;41.77
45129;BME280;35512;56.312;101.728;2023-03-20T03:24:52;95504.06;;;-0.47;41.70
45129;BME280;35512;56.312;101.728;2023-03-20T03:27:28;95492.03;;;-0.62;41.96
45129;BME280;35512;56.312;101.728;2023-03-20T03:30:09;95496.88;;;-0.46;41.97
45129;BME280;35512;56.312;101.728;2023-03-20T03:32:49;95513.88;;;-0.39;41.55
45129;BME280;35512;56.312;101.728;2023-03-20T03:35:20;95503.09;;;-0.25;41.26
45129;BME280;35512;56.312;101.728;2023-03-20T03:37:58;95520.88;;;-0.17;41.72
45129;BME280;35512;56.312;101.728;2023-03-20T03:41:18;95526.66;;;-0.23;40.80
45129;BME280;35512;56.312;101.728;2023-03-20T03:44:07;95534.47;;;-0.44;41.53
45129;BME280;35512;56.312;101.728;2023-03-20T03:49:26;95551.94;;;-0.52;41.23
45129;BME280;35512;56.312;101.728;2023-03-20T03:52:02;95547.41;;;-0.60;40.67
45129;BME280;35512;56.312;101.728;2023-03-20T03:54:54;95561.16;;;-0.58;41.54
45129;BME280;35512;56.312;101.728;2023-03-20T03:57:52;95564.88;;;-0.51;40.77
45129;BME280;35512;56.312;101.728;2023-03-20T04:00:25;95571.75;;;-0.49;40.57
45129;BME280;35512;56.312;101.728;2023-03-20T04:02:57;95583.16;;;-0.58;40.36
45129;BME280;35512;56.312;101.728;2023-03-20T04:05:30;95581.13;;;-0.61;40.92
45129;BME280;35512;56.312;101.728;2023-03-20T04:08:02;95581.59;;;-0.41;40.96
45129;BME280;35512;56.312;101.728;2023-03-20T04:10:31;95587.22;;;-0.17;40.25
45129;BME280;35512;56.312;101.728;2023-03-20T04:13:00;95585.50;;;-0.12;39.85
45129;BME280;35512;56.312;101.728;2023-03-20T04:15:29;95590.50;;;-0.28;39.94
45129;BME280;35512;56.312;101.728;2023-03-20T04:17:58;95595.78;;;-0.37;39.99
45129;BME280;35512;56.312;101.728;2023-03-20T04:20:28;95598.16;;;-0.44;40.58
45129;BME280;35512;56.312;101.728;2023-03-20T04:22:57;95611.56;;;-0.49;40.15
45129;BME280;35512;56.312;101.728;2023-03-20T04:25:26;95617.94;;;-0.59;39.72
45129;BME280;35512;56.312;101.728;2023-03-20T04:27:57;95622.56;;;-0.74;40.01
45129;BME280;35512;56.312;101.728;2023-03-20T04:30:54;95621.44;;;-0.90;39.61
45129;BME280;35512;56.312;101.728;2023-03-20T04:33:45;95613.97;;;-0.88;39.50
45129;BME280;35512;56.312;101.728;2023-03-20T04:36:25;95600.16;;;-0.68;39.89
45129;BME280;35512;56.312;101.728;2023-03-20T04:38:54;95620.56;;;-0.77;38.89
45129;BME280;35512;56.312;101.728;2023-03-20T04:41:25;95626.56;;;-1.03;38.76
45129;BME280;35512;56.312;101.728;2023-03-20T04:43:57;95629.84;;;-1.37;38.43
45129;BME280;35512;56.312;101.728;2023-03-20T04:46:25;95641.63;;;-1.52;39.24
45129;BME280;35512;56.312;101.728;2023-03-20T04:48:55;95638.44;;;-1.31;38.99
45129;BME280;35512;56.312;101.728;2023-03-20T04:51:29;95622.25;;;-0.90;39.26
45129;BME280;35512;56.312;101.728;2023-03-20T04:53:58;95626.53;;;-0.62;38.49
45129;BME280;35512;56.312;101.728;2023-03-20T04:56:27;95647.16;;;-0.42;38.79
45129;BME280;35512;56.312;101.728;2023-03-20T04:59:10;95654.81;;;-0.23;38.38
45129;BME280;35512;56.312;101.728;2023-03-20T05:01:41;95677.59;;;-0.13;38.65
45129;BME280;35512;56.312;101.728;2023-03-20T05:04:11;95673.72;;;0.20;38.18
45129;BME280;35512;56.312;101.728;2023-03-20T05:06:41;95677.47;;;1.31;37.58
45129;BME280;35512;56.312;101.728;2023-03-20T05:09:11;95700.59;;;1.48;37.03
45129;BME280;35512;56.312;101.728;2023-03-20T05:11:41;95700.72;;;1.13;37.10
45129;BME280;35512;56.312;101.728;2023-03-20T05:14:30;95703.81;;;1.24;37.04
45129;BME280;35512;56.312;101.728;2023-03-20T05:17:24;95703.31;;;0.92;35.09
45129;BME280;35512;56.312;101.728;2023-03-20T05:20:12;95710.09;;;0.19;36.25
45129;BME280;35512;56.312;101.728;2023-03-20T05:23:13;95719.66;;;0.29;36.27
45129;BME280;35512;56.312;101.728;2023-03-20T05:26:02;95726.69;;;0.25;35.88
45129;BME280;35512;56.312;101.728;2023-03-20T05:28:50;95736.34;;;0.56;36.17
45129;BME280;35512;56.312;101.728;2023-03-20T05:31:37;95730.38;;;1.32;35.46
45129;BME280;35512;56.312;101.728;2023-03-20T05:34:32;95730.28;;;2.52;34.32
45129;BME280;35512;56.312;101.728;2023-03-20T05:37:10;95735.72;;;3.84;32.96
45129;BME280;35512;56.312;101.728;2023-03-20T05:39:58;95743.50;;;4.14;31.73
45129;BME280;35512;56.312;101.728;2023-03-20T05:42:56;95757.75;;;3.44;31.83
45129;BME280;35512;56.312;101.728;2023-03-20T05:45:52;95749.41;;;3.33;30.35
45129;BME280;35512;56.312;101.728;2023-03-20T05:48:41;95760.56;;;2.47;30.82
45129;BME280;35512;56.312;101.728;2023-03-20T05:51:28;95763.50;;;2.33;30.96
45129;BME280;35512;56.312;101.728;2023-03-20T05:54:05;95767.16;;;1.99;30.92
45129;BME280;35512;56.312;101.728;2023-03-20T05:56:57;95783.78;;;1.66;31.24
45129;BME280;35512;56.312;101.728;2023-03-20T05:59:35;95769.97;;;2.02;31.99
45129;BME280;35512;56.312;101.728;2023-03-20T06:02:11;95779.09;;;2.44;31.78
45129;BME280;35512;56.312;101.728;2023-03-20T06:04:47;95788.16;;;2.85;31.33
45129;BME280;35512;56.312;101.728;2023-03-20T06:07:30;95790.66;;;2.69;30.83
45129;BME280;35512;56.312;101.728;2023-03-20T06:10:03;95791.47;;;2.48;30.87
45129;BME280;35512;56.312;101.728;2023-03-20T06:12:32;95785.94;;;2.02;30.62
45129;BME280;35512;56.312;101.728;2023-03-20T06:15:02;95799.41;;;1.29;30.18
45129;BME280;35512;56.312;101.728;2023-03-20T06:17:34;95797.09;;;1.10;30.54
45129;BME280;35512;56.312;101.728;2023-03-20T06:20:04;95814.00;;;0.96;31.08
45129;BME280;35512;56.312;101.728;2023-03-20T06:22:33;95808.53;;;1.01;30.85
45129;BME280;35512;56.312;101.728;2023-03-20T06:25:04;95815.75;;;0.83;30.90
45129;BME280;35512;56.312;101.728;2023-03-20T06:27:39;95803.38;;;0.61;30.92
45129;BME280;35512;56.312;101.728;2023-03-20T06:30:10;95828.38;;;0.34;30.96
45129;BME280;35512;56.312;101.728;2023-03-20T06:32:40;95840.97;;;0.11;31.91
45129;BME280;35512;56.312;101.728;2023-03-20T06:35:12;95840.06;;;0.15;31.92
45129;BME280;35512;56.312;101.728;2023-03-20T06:37:45;95843.59;;;0.86;32.46
45129;BME280;35512;56.312;101.728;2023-03-20T06:40:20;95841.09;;;2.02;31.76
45129;BME280;35512;56.312;101.728;2023-03-20T06:42:50;95858.28;;;2.64;31.30
45129;BME280;35512;56.312;101.728;2023-03-20T06:45:20;95872.41;;;2.86;31.45
45129;BME280;35512;56.312;101.728;2023-03-20T06:47:58;95873.56;;;2.76;30.88
45129;BME280;35512;56.312;101.728;2023-03-20T06:50:28;95877.84;;;2.17;31.32
45129;BME280;35512;56.312;101.728;2023-03-20T06:52:58;95887.00;;;1.43;31.31
45129;BME280;35512;56.312;101.728;2023-03-20T06:55:49;95883.72;;;0.58;32.16
45129;BME280;35512;56.312;101.728;2023-03-20T06:58:18;95904.34;;;-0.05;33.49
45129;BME280;35512;56.312;101.728;2023-03-20T07:00:51;95898.56;;;-0.39;33.22
45129;BME280;35512;56.312;101.728;2023-03-20T07:03:22;95921.38;;;-0.83;33.89
45129;BME280;35512;56.312;101.728;2023-03-20T07:05:54;95926.63;;;-1.42;34.21
45129;BME280;35512;56.312;101.728;2023-03-20T07:08:23;95937.03;;;-1.60;34.96
45129;BME280;35512;56.312;101.728;2023-03-20T07:10:52;95931.34;;;-1.67;34.78
45129;BME280;35512;56.312;101.728;2023-03-20T07:13:21;95936.06;;;-1.78;35.00
45129;BME280;35512;56.312;101.728;2023-03-20T07:15:51;95939.78;;;-1.93;35.21
45129;BME280;35512;56.312;101.728;2023-03-20T07:18:37;95946.13;;;-2.08;35.27
45129;BME280;35512;56.312;101.728;2023-03-20T07:21:07;95932.88;;;-2.35;35.40
45129;BME280;35512;56.312;101.728;2023-03-20T07:23:37;95954.19;;;-2.46;35.54
45129;BME280;35512;56.312;101.728;2023-03-20T07:26:07;95959.16;;;-2.44;35.71
45129;BME280;35512;56.312;101.728;2023-03-20T07:28:36;95960.16;;;-2.40;35.47
45129;BME280;35512;56.312;101.728;2023-03-20T07:31:23;95969.56;;;-2.48;35.43
45129;BME280;35512;56.312;101.728;2023-03-20T07:34:02;95961.59;;;-2.29;35.78
45129;BME280;35512;56.312;101.728;2023-03-20T07:36:33;95972.00;;;-2.05;36.00
45129;BME280;35512;56.312;101.728;2023-03-20T07:39:02;95975.53;;;-1.95;35.94
45129;BME280;35512;56.312;101.728;2023-03-20T07:41:33;95981.13;;;-1.83;35.52
45129;BME280;35512;56.312;101.728;2023-03-20T07:44:05;95991.84;;;-1.74;36.12
45129;BME280;35512;56.312;101.728;2023-03-20T07:46:47;95992.63;;;-1.74;35.23
45129;BME280;35512;56.312;101.728;2023-03-20T07:49:16;95997.63;;;-1.16;35.54
45129;BME280;35512;56.312;101.728;2023-03-20T07:51:49;96005.50;;;-0.52;34.90
45129;BME280;35512;56.312;101.728;2023-03-20T07:54:19;96021.50;;;-0.80;34.36
45129;BME280;35512;56.312;101.728;2023-03-20T07:56:48;96024.03;;;-1.53;34.84
45129;BME280;35512;56.312;101.728;2023-03-20T07:59:18;96035.53;;;-2.24;35.46
45129;BME280;35512;56.312;101.728;2023-03-20T08:01:48;96040.69;;;-2.65;36.75
45129;BME280;35512;56.312;101.728;2023-03-20T08:04:18;96046.66;;;-2.98;37.33
45129;BME280;35512;56.312;101.728;2023-03-20T08:06:50;96048.31;;;-3.26;38.47
45129;BME280;35512;56.312;101.728;2023-03-20T08:09:19;96064.34;;;-3.17;38.45
45129;BME280;35512;56.312;101.728;2023-03-20T08:11:48;96066.97;;;-3.17;38.94
45129;BME280;35512;56.312;101.728;2023-03-20T08:14:17;96058.75;;;-2.92;38.59
45129;BME280;35512;56.312;101.728;2023-03-20T08:16:46;96056.91;;;-2.20;38.71
45129;BME280;35512;56.312;101.728;2023-03-20T08:19:26;96048.06;;;-1.22;37.71
45129;BME280;35512;56.312;101.728;2023-03-20T08:21:55;96057.59;;;-1.34;37.31
45129;BME280;35512;56.312;101.728;2023-03-20T08:24:24;96074.94;;;-1.56;37.40
45129;BME280;35512;56.312;101.728;2023-03-20T08:26:53;96084.31;;;-1.64;37.56
45129;BME280;35512;56.312;101.728;2023-03-20T08:29:22;96088.63;;;-1.68;37.29
45129;BME280;35512;56.312;101.728;2023-03-20T08:31:51;96098.81;;;-1.75;37.45
45129;BME280;35512;56.312;101.728;2023-03-20T08:34:20;96110.22;;;-1.94;37.23
45129;BME280;35512;56.312;101.728;2023-03-20T08:36:51;96118.47;;;-2.33;37.63
45129;BME280;35512;56.312;101.728;2023-03-20T08:39:20;96127.88;;;-2.84;38.07
45129;BME280;35512;56.312;101.728;2023-03-20T08:41:49;96143.28;;;-3.16;38.37
45129;BME280;35512;56.312;101.728;2023-03-20T08:44:18;96138.06;;;-3.21;38.63
45129;BME280;35512;56.312;101.728;2023-03-20T08:46:48;96140.97;;;-3.23;38.67
45129;BME280;35512;56.312;101.728;2023-03-20T08:49:17;96148.34;;;-3.19;38.60
45129;BME280;35512;56.312;101.728;2023-03-20T08:51:48;96137.09;;;-3.06;38.49
45129;BME280;35512;56.312;101.728;2023-03-20T08:54:17;96155.94;;;-2.89;37.99
45129;BME280;35512;56.312;101.728;2023-03-20T08:56:46;96160.09;;;-2.82;38.18
45129;BME280;35512;56.312;101.728;2023-03-20T08:59:15;96159.31;;;-2.83;38.05
45129;BME280;35512;56.312;101.728;2023-03-20T09:01:45;96167.47;;;-3.03;38.35
45129;BME280;35512;56.312;101.728;2023-03-20T09:04:17;96168.19;;;-3.51;38.50
45129;BME280;35512;56.312;101.728;2023-03-20T09:06:46;96174.03;;;-3.94;38.98
45129;BME280;35512;56.312;101.728;2023-03-20T09:09:16;96181.56;;;-4.12;39.18
45129;BME280;35512;56.312;101.728;2023-03-20T09:11:47;96203.19;;;-4.15;38.89
45129;BME280;35512;56.312;101.728;2023-03-20T09:14:16;96201.53;;;-4.00;38.80
45129;BME280;35512;56.312;101.728;2023-03-20T09:16:45;96207.31;;;-3.98;38.93
45129;BME280;35512;56.312;101.728;2023-03-20T09:19:14;96209.22;;;-4.09;38.87
45129;BME280;35512;56.312;101.728;2023-03-20T09:21:43;96220.72;;;-4.39;38.87
45129;BME280;35512;56.312;101.728;2023-03-20T09:24:12;96218.94;;;-4.60;39.20
45129;BME280;35512;56.312;101.728;2023-03-20T09:26:41;96228.97;;;-4.56;39.36
45129;BME280;35512;56.312;101.728;2023-03-20T09:29:10;96222.88;;;-4.47;38.97
45129;BME280;35512;56.312;101.728;2023-03-20T09:31:39;96237.31;;;-4.34;38.95
45129;BME280;35512;56.312;101.728;2023-03-20T09:34:08;96246.28;;;-4.35;38.80
45129;BME280;35512;56.312;101.728;2023-03-20T09:36:37;96249.25;;;-4.62;38.25
45129;BME280;35512;56.312;101.728;2023-03-20T09:39:06;96262.00;;;-4.90;38.65
45129;BME280;35512;56.312;101.728;2023-03-20T09:41:35;96267.03;;;-5.09;38.61
45129;BME280;35512;56.312;101.728;2023-03-20T09:47:37;96273.09;;;-5.39;38.68
45129;BME280;35512;56.312;101.728;2023-03-20T09:50:20;96284.66;;;-5.61;38.93
45129;BME280;35512;56.312;101.728;2023-03-20T09:53:17;96297.81;;;-5.66;38.93
45129;BME280;35512;56.312;101.728;2023-03-20T09:55:44;96297.81;;;-5.61;38.93
45129;BME280;35512;56.312;101.728;2023-03-20T09:58:36;96313.28;;;-6.01;38.71
45129;BME280;35512;56.312;101.728;2023-03-20T10:01:12;96312.03;;;-6.51;39.07
45129;BME280;35512;56.312;101.728;2023-03-20T10:03:50;96318.59;;;-6.91;39.00
45129;BME280;35512;56.312;101.728;2023-03-20T10:06:20;96331.00;;;-7.19;39.74
45129;BME280;35512;56.312;101.728;2023-03-20T10:08:50;96340.63;;;-7.30;39.67
45129;BME280;35512;56.312;101.728;2023-03-20T10:19:50;96350.09;;;-7.29;39.47
45129;BME280;35512;56.312;101.728;2023-03-20T10:22:30;96346.66;;;-7.30;39.85
45129;BME280;35512;56.312;101.728;2023-03-20T10:28:02;96366.56;;;-7.34;39.40
45129;BME280;35512;56.312;101.728;2023-03-20T10:30:51;96367.19;;;-7.54;39.53
45129;BME280;35512;56.312;101.728;2023-03-20T10:38:59;96387.88;;;-8.02;39.60
45129;BME280;35512;56.312;101.728;2023-03-20T10:41:36;96389.63;;;-8.12;39.68
45129;BME280;35512;56.312;101.728;2023-03-20T10:44:15;96392.09;;;-8.23;39.66
45129;BME280;35512;56.312;101.728;2023-03-20T10:46:48;96407.66;;;-8.33;39.56
45129;BME280;35512;56.312;101.728;2023-03-20T10:49:57;96417.47;;;-8.45;39.44
45129;BME280;35512;56.312;101.728;2023-03-20T10:52:31;96424.19;;;-8.55;39.73
45129;BME280;35512;56.312;101.728;2023-03-20T10:55:11;96436.94;;;-8.58;39.82
45129;BME280;35512;56.312;101.728;2023-03-20T10:57:51;96442.66;;;-8.61;39.89
45129;BME280;35512;56.312;101.728;2023-03-20T11:00:24;96449.47;;;-8.60;39.99
45129;BME280;35512;56.312;101.728;2023-03-20T11:02:54;96461.38;;;-8.53;40.31
45129;BME280;35512;56.312;101.728;2023-03-20T11:05:33;96475.81;;;-8.50;40.53
45129;BME280;35512;56.312;101.728;2023-03-20T11:10:35;96497.56;;;-8.50;40.91
45129;BME280;35512;56.312;101.728;2023-03-20T11:13:26;96508.84;;;-8.49;41.06
45129;BME280;35512;56.312;101.728;2023-03-20T11:16:09;96505.56;;;-8.56;42.08
45129;BME280;35512;56.312;101.728;2023-03-20T11:18:40;96509.78;;;-8.55;42.21
45129;BME280;35512;56.312;101.728;2023-03-20T11:21:24;96508.44;;;-8.58;41.94
45129;BME280;35512;56.312;101.728;2023-03-20T11:23:54;96520.75;;;-8.58;42.33
45129;BME280;35512;56.312;101.728;2023-03-20T11:26:31;96516.03;;;-8.56;43.24
45129;BME280;35512;56.312;101.728;2023-03-20T11:29:05;96514.06;;;-8.66;43.37
45129;BME280;35512;56.312;101.728;2023-03-20T11:31:39;96527.72;;;-8.64;43.18
45129;BME280;35512;56.312;101.728;2023-03-20T11:37:00;96547.31;;;-8.67;43.31
45129;BME280;35512;56.312;101.728;2023-03-20T11:39:37;96555.81;;;-8.59;43.19
45129;BME280;35512;56.312;101.728;2023-03-20T11:42:22;96564.13;;;-8.62;42.77
45129;BME280;35512;56.312;101.728;2023-03-20T11:45:18;96581.34;;;-8.67;43.23
45129;BME280;35512;56.312;101.728;2023-03-20T11:47:50;96585.47;;;-8.71;42.88
45129;BME280;35512;56.312;101.728;2023-03-20T11:50:33;96585.84;;;-8.79;43.11
45129;BME280;35512;56.312;101.728;2023-03-20T11:58:35;96606.44;;;-9.11;44.31
45129;BME280;35512;56.312;101.728;2023-03-20T12:01:07;96613.84;;;-9.20;45.20
45129;BME280;35512;56.312;101.728;2023-03-20T12:03:43;96614.22;;;-9.40;44.94
45129;BME280;35512;56.312;101.728;2023-03-20T12:06:40;96622.06;;;-9.64;44.72
45129;BME280;35512;56.312;101.728;2023-03-20T12:09:18;96624.00;;;-9.83;45.22
45129;BME280;35512;56.312;101.728;2023-03-20T12:18:16;96651.59;;;-9.87;45.10
45129;BME280;35512;56.312;101.728;2023-03-20T12:23:48;96656.50;;;-9.79;45.14
45129;BME280;35512;56.312;101.728;2023-03-20T12:29:06;96688.91;;;-9.68;45.21
45129;BME280;35512;56.312;101.728;2023-03-20T12:32:00;96688.13;;;-9.69;44.90
45129;BME280;35512;56.312;101.728;2023-03-20T12:34:51;96695.38;;;-9.71;44.89
45129;BME280;35512;56.312;101.728;2023-03-20T12:37:23;96704.81;;;-9.70;45.22
45129;BME280;35512;56.312;101.728;2023-03-20T12:39:58;96711.28;;;-9.72;45.09
45129;BME280;35512;56.312;101.728;2023-03-20T12:42:51;96707.88;;;-9.73;45.16
45129;BME280;35512;56.312;101.728;2023-03-20T12:56:42;96743.84;;;-10.29;45.20
45129;BME280;35512;56.312;101.728;2023-03-20T13:05:07;96755.31;;;-10.60;45.59
45129;BME280;35512;56.312;101.728;2023-03-20T13:10:33;96776.13;;;-10.54;45.48
45129;BME280;35512;56.312;101.728;2023-03-20T13:16:01;96790.25;;;-10.43;45.35
45129;BME280;35512;56.312;101.728;2023-03-20T13:18:52;96783.88;;;-10.47;45.33
45129;BME280;35512;56.312;101.728;2023-03-20T13:21:44;96803.09;;;-10.41;45.09
45129;BME280;35512;56.312;101.728;2023-03-20T13:24:31;96810.34;;;-10.43;45.11
45129;BME280;35512;56.312;101.728;2023-03-20T13:27:30;96812.94;;;-10.43;45.58
45129;BME280;35512;56.312;101.728;2023-03-20T13:30:12;96814.06;;;-10.51;45.59
45129;BME280;35512;56.312;101.728;2023-03-20T13:38:22;96835.69;;;-10.69;45.49
45129;BME280;35512;56.312;101.728;2023-03-20T13:41:00;96832.38;;;-10.76;45.61
45129;BME280;35512;56.312;101.728;2023-03-20T13:43:36;96845.34;;;-10.69;45.84
45129;BME280;35512;56.312;101.728;2023-03-20T13:46:13;96855.13;;;-10.65;45.77
45129;BME280;35512;56.312;101.728;2023-03-20T13:48:45;96858.78;;;-10.66;45.71
45129;BME280;35512;56.312;101.728;2023-03-20T13:51:30;96866.00;;;-10.68;45.46
45129;BME280;35512;56.312;101.728;2023-03-20T14:03:14;96883.06;;;-10.91;45.28
45129;BME280;35512;56.312;101.728;2023-03-20T14:05:41;96885.94;;;-10.99;45.29
45129;BME280;35512;56.312;101.728;2023-03-20T14:08:32;96894.59;;;-10.98;45.43
45129;BME280;35512;56.312;101.728;2023-03-20T14:13:54;96890.28;;;-11.18;45.32
45129;BME280;35512;56.312;101.728;2023-03-20T14:16:26;96904.19;;;-11.24;45.47
45129;BME280;35512;56.312;101.728;2023-03-20T14:19:28;96905.06;;;-11.37;45.47
45129;BME280;35512;56.312;101.728;2023-03-20T14:21:57;96919.03;;;-11.57;45.39
45129;BME280;35512;56.312;101.728;2023-03-20T14:24:27;96918.50;;;-11.72;45.58
45129;BME280;35512;56.312;101.728;2023-03-20T14:26:58;96928.72;;;-11.70;45.98
45129;BME280;35512;56.312;101.728;2023-03-20T14:34:58;96936.00;;;-11.86;46.15
45129;BME280;35512;56.312;101.728;2023-03-20T14:40:13;96957.72;;;-12.05;46.44
45129;BME280;35512;56.312;101.728;2023-03-20T14:42:49;96962.56;;;-12.16;46.25
45129;BME280;35512;56.312;101.728;2023-03-20T14:45:40;96963.16;;;-12.27;46.47
45129;BME280;35512;56.312;101.728;2023-03-20T14:53:43;96984.63;;;-12.32;46.47
45129;BME280;35512;56.312;101.728;2023-03-20T14:56:13;96981.81;;;-12.30;46.75
45129;BME280;35512;56.312;101.728;2023-03-20T14:58:56;96984.38;;;-12.17;46.79
45129;BME280;35512;56.312;101.728;2023-03-20T15:09:26;96999.81;;;-12.35;46.39
45129;BME280;35512;56.312;101.728;2023-03-20T15:11:57;97015.44;;;-12.49;46.29
45129;BME280;35512;56.312;101.728;2023-03-20T15:14:56;97015.06;;;-12.52;46.40
45129;BME280;35512;56.312;101.728;2023-03-20T15:17:45;97008.44;;;-12.68;46.32
45129;BME280;35512;56.312;101.728;2023-03-20T15:20:23;97023.63;;;-12.72;46.27
45129;BME280;35512;56.312;101.728;2023-03-20T15:25:42;97024.22;;;-12.90;46.35
45129;BME280;35512;56.312;101.728;2023-03-20T15:28:38;97028.00;;;-12.93;46.24
45129;BME280;35512;56.312;101.728;2023-03-20T15:31:33;97036.41;;;-12.97;46.51
45129;BME280;35512;56.312;101.728;2023-03-20T15:34:07;97038.22;;;-13.04;46.24
45129;BME280;35512;56.312;101.728;2023-03-20T15:36:38;97043.81;;;-13.01;46.38
45129;BME280;35512;56.312;101.728;2023-03-20T15:41:46;97036.81;;;-13.07;46.11
45129;BME280;35512;56.312;101.728;2023-03-20T15:44:19;97049.00;;;-13.01;45.96
45129;BME280;35512;56.312;101.728;2023-03-20T15:46:58;97054.41;;;-13.02;46.07
45129;BME280;35512;56.312;101.728;2023-03-20T15:49:30;97051.00;;;-13.10;45.72